createdAt,value
2022-11-01T00:02:07.136Z,22.57
2022-11-01T00:04:34.192Z,21.77
2022-11-01T00:07:02.213Z,20.27
2022-11-01T00:09:29.173Z,22.07
2022-11-01T00:11:55.996Z,16.63
2022-11-01T00:14:23.589Z,16.50
2022-11-01T00:16:50.716Z,18.63
2022-11-01T00:19:17.979Z,16.23
2022-11-01T00:21:44.881Z,30.60
2022-11-01T00:24:11.922Z,18.37
2022-11-01T00:26:38.880Z,20.57
2022-11-01T00:29:05.738Z,21.80
2022-11-01T00:31:35.696Z,18.93
2022-11-01T00:34:05.608Z,19.40
2022-11-01T00:36:34.012Z,17.80
2022-11-01T00:39:01.092Z,19.17
2022-11-01T00:41:28.081Z,18.90
2022-11-01T00:43:54.889Z,17.27
2022-11-01T00:46:21.701Z,18.53
2022-11-01T00:48:49.638Z,21.00
2022-11-01T00:51:16.543Z,18.13
2022-11-01T00:53:43.501Z,19.97
2022-11-01T00:56:10.375Z,22.27
2022-11-01T00:58:37.233Z,17.93
2022-11-01T01:01:07.214Z,22.70
2022-11-01T01:03:34.388Z,20.53
2022-11-01T01:06:01.425Z,19.50
2022-11-01T01:08:28.690Z,23.13
2022-11-01T01:10:55.749Z,21.03
2022-11-01T01:13:25.451Z,18.80
2022-11-01T01:15:52.587Z,19.07
2022-11-01T01:18:19.453Z,17.40
2022-11-01T01:20:46.265Z,17.23
2022-11-01T01:23:13.172Z,20.07
2022-11-01T01:25:42.533Z,20.83
2022-11-01T01:28:09.992Z,17.07
2022-11-01T01:30:41.195Z,22.30
2022-11-01T01:33:08.421Z,18.17
2022-11-01T01:35:35.278Z,17.23
2022-11-01T01:38:02.589Z,20.53
2022-11-01T01:40:30.001Z,19.13
2022-11-01T01:42:56.828Z,17.00
2022-11-01T01:45:26.816Z,18.40
2022-11-01T01:47:55.678Z,17.73
2022-11-01T01:50:31.479Z,17.57
2022-11-01T01:53:13.875Z,15.03
2022-11-01T01:56:00.601Z,11.37
2022-11-01T01:58:48.512Z,8.67
2022-11-01T02:01:15.888Z,10.00
2022-11-01T02:03:44.044Z,10.43
2022-11-01T02:06:13.675Z,7.57
2022-11-01T02:08:47.898Z,11.07
2022-11-01T02:11:17.318Z,10.93
2022-11-01T02:13:44.413Z,10.70
2022-11-01T02:16:38.669Z,7.47
2022-11-01T02:19:29.772Z,9.23
2022-11-01T02:22:12.161Z,11.30
2022-11-01T02:25:00.579Z,11.27
2022-11-01T02:27:50.386Z,8.77
2022-11-01T02:30:25.438Z,13.40
2022-11-01T02:33:15.452Z,11.57
2022-11-01T02:35:57.873Z,7.57
2022-11-01T02:38:46.591Z,9.60
2022-11-01T02:41:16.233Z,8.43
2022-11-01T02:43:48.205Z,11.30
2022-11-01T02:46:36.061Z,9.00
2022-11-01T02:49:04.374Z,7.77
2022-11-01T02:51:33.392Z,7.77
2022-11-01T02:54:08.223Z,9.70
2022-11-01T02:56:35.638Z,11.00
2022-11-01T02:59:02.503Z,7.60
2022-11-01T03:01:32.346Z,7.80
2022-11-01T03:04:02.066Z,9.17
2022-11-01T03:06:39.899Z,8.13
2022-11-01T03:09:10.951Z,10.97
2022-11-01T03:11:57.697Z,10.17
2022-11-01T03:14:46.529Z,8.90
2022-11-01T03:17:20.585Z,9.03
2022-11-01T03:19:58.827Z,11.20
2022-11-01T03:22:39.435Z,9.73
2022-11-01T03:25:34.475Z,8.53
2022-11-01T03:28:06.597Z,9.00
2022-11-01T03:30:37.377Z,8.13
2022-11-01T03:33:07.537Z,9.73
2022-11-01T03:35:40.378Z,8.17
2022-11-01T03:38:10.676Z,14.60
2022-11-01T03:40:44.805Z,11.30
2022-11-01T03:43:15.622Z,14.53
2022-11-01T03:45:46.189Z,9.83
2022-11-01T03:48:13.453Z,9.33
2022-11-01T03:50:46.295Z,9.30
2022-11-01T03:53:13.372Z,8.23
2022-11-01T03:55:40.212Z,11.23
2022-11-01T03:58:07.955Z,10.57
2022-11-01T04:00:41.052Z,8.20
2022-11-01T04:03:09.102Z,14.17
2022-11-01T04:05:37.689Z,11.27
2022-11-01T04:08:05.634Z,12.63
2022-11-01T04:10:33.257Z,8.10
2022-11-01T04:13:03.792Z,17.50
2022-11-01T04:15:49.391Z,9.73
2022-11-01T04:18:35.388Z,10.70
2022-11-01T04:21:11.638Z,10.60
2022-11-01T04:23:41.973Z,10.67
2022-11-01T04:26:12.986Z,10.50
2022-11-01T04:28:39.825Z,8.23
2022-11-01T04:31:06.867Z,9.33
2022-11-01T04:33:33.797Z,6.97
2022-11-01T04:36:08.259Z,11.83
2022-11-01T04:38:36.557Z,8.00
2022-11-01T04:41:03.895Z,9.57
2022-11-01T04:43:30.675Z,9.87
2022-11-01T04:45:58.037Z,7.30
2022-11-01T04:48:26.180Z,9.70
2022-11-01T04:50:53.011Z,10.10
2022-11-01T04:53:19.781Z,9.23
2022-11-01T04:55:46.518Z,9.30
2022-11-01T04:58:14.725Z,6.60
2022-11-01T05:00:46.574Z,9.47
2022-11-01T05:03:16.114Z,8.10
2022-11-01T05:05:42.897Z,7.50
2022-11-01T05:08:12.500Z,7.70
2022-11-01T05:10:42.132Z,6.63
2022-11-01T05:13:10.380Z,9.60
2022-11-01T05:15:39.991Z,11.10
2022-11-01T05:18:14.792Z,9.37
2022-11-01T05:20:41.645Z,7.60
2022-11-01T05:23:09.386Z,7.83
2022-11-01T05:25:38.214Z,7.90
2022-11-01T05:28:09.024Z,9.43
2022-11-01T05:30:38.680Z,8.13
2022-11-01T05:33:06.853Z,8.17
2022-11-01T05:35:35.323Z,7.93
2022-11-01T05:38:03.922Z,9.73
2022-11-01T05:40:35.047Z,9.30
2022-11-01T05:43:02.262Z,9.87
2022-11-01T05:45:32.271Z,12.67
2022-11-01T05:48:03.539Z,8.20
2022-11-01T05:50:30.374Z,5.70
2022-11-01T05:53:08.076Z,6.80
2022-11-01T05:55:36.420Z,7.50
2022-11-01T05:58:03.495Z,7.47
2022-11-01T06:00:31.336Z,9.47
2022-11-01T06:03:02.189Z,9.93
2022-11-01T06:05:30.206Z,8.10
2022-11-01T06:07:57.682Z,6.30
2022-11-01T06:10:27.680Z,8.27
2022-11-01T06:12:55.501Z,9.03
2022-11-01T06:15:22.749Z,7.27
2022-11-01T06:17:56.310Z,5.73
2022-11-01T06:20:23.506Z,7.33
2022-11-01T06:22:50.269Z,7.67
2022-11-01T06:25:17.054Z,6.90
2022-11-01T06:27:47.171Z,6.33
2022-11-01T06:30:14.174Z,8.33
2022-11-01T06:32:41.260Z,6.90
2022-11-01T06:35:09.181Z,8.60
2022-11-01T06:37:36.391Z,5.07
2022-11-01T06:40:04.221Z,8.83
2022-11-01T06:42:31.088Z,7.83
2022-11-01T06:44:58.034Z,6.53
2022-11-01T06:47:25.142Z,7.40
2022-11-01T06:49:52.140Z,8.67
2022-11-01T06:52:19.116Z,9.40
2022-11-01T06:54:49.974Z,6.30
2022-11-01T06:57:17.160Z,11.10
2022-11-01T06:59:44.179Z,7.80
2022-11-01T07:02:14.294Z,5.97
2022-11-01T07:04:41.398Z,6.63
2022-11-01T07:07:08.355Z,5.33
2022-11-01T07:09:35.875Z,6.10
2022-11-01T07:12:02.719Z,8.80
2022-11-01T07:14:30.980Z,7.17
2022-11-01T07:16:57.838Z,6.97
2022-11-01T07:19:26.952Z,11.37
2022-11-01T07:21:53.736Z,8.70
2022-11-01T07:24:22.843Z,7.63
2022-11-01T07:26:49.628Z,4.53
2022-11-01T07:29:16.948Z,6.67
2022-11-01T07:31:44.042Z,5.70
2022-11-01T07:34:10.872Z,7.43
2022-11-01T07:36:37.812Z,6.93
2022-11-01T07:39:04.816Z,8.20
2022-11-01T07:41:32.416Z,10.43
2022-11-01T07:43:59.673Z,8.97
2022-11-01T07:46:26.828Z,6.47
2022-11-01T07:48:53.764Z,5.63
2022-11-01T07:51:20.918Z,6.40
2022-11-01T07:53:47.801Z,6.50
2022-11-01T07:56:14.765Z,6.37
2022-11-01T07:58:43.474Z,4.67
2022-11-01T08:01:11.619Z,6.37
2022-11-01T08:03:38.953Z,8.57
2022-11-01T08:06:06.005Z,6.40
2022-11-01T08:08:33.131Z,9.03
2022-11-01T08:11:01.655Z,5.37
2022-11-01T08:13:29.415Z,8.70
2022-11-01T08:15:56.671Z,6.60
2022-11-01T08:18:24.441Z,6.40
2022-11-01T08:20:51.956Z,6.20
2022-11-01T08:23:21.874Z,7.97
2022-11-01T08:25:49.680Z,5.73
2022-11-01T08:28:19.567Z,4.97
2022-11-01T08:30:48.580Z,5.00
2022-11-01T08:33:16.333Z,7.23
2022-11-01T08:35:49.791Z,4.30
2022-11-01T08:38:16.760Z,5.40
2022-11-01T08:40:46.024Z,5.97
2022-11-01T08:43:12.782Z,7.50
2022-11-01T08:45:40.299Z,2.67
2022-11-01T08:48:09.086Z,4.57
2022-11-01T08:50:37.439Z,3.50
2022-11-01T08:53:13.300Z,5.03
2022-11-01T08:55:41.618Z,4.73
2022-11-01T08:58:09.755Z,6.53
2022-11-01T09:00:37.211Z,4.63
2022-11-01T09:03:06.921Z,3.03
2022-11-01T09:05:34.461Z,5.10
2022-11-01T09:08:02.707Z,3.53
2022-11-01T09:10:32.998Z,6.93
2022-11-01T09:13:01.184Z,3.63
2022-11-01T09:15:28.606Z,2.73
2022-11-01T09:17:55.387Z,5.27
2022-11-01T09:20:24.313Z,5.90
2022-11-01T09:22:52.548Z,4.43
2022-11-01T09:25:19.972Z,3.53
2022-11-01T09:27:46.739Z,4.60
2022-11-01T09:30:13.727Z,1.87
2022-11-01T09:32:40.484Z,1.77
2022-11-01T09:35:07.881Z,5.97
2022-11-01T09:37:34.818Z,3.37
2022-11-01T09:40:01.788Z,2.57
2022-11-01T09:42:35.759Z,5.53
2022-11-01T09:45:12.868Z,4.00
2022-11-01T09:47:41.650Z,3.43
2022-11-01T09:50:29.517Z,3.80
2022-11-01T09:52:57.398Z,5.87
2022-11-01T09:55:52.947Z,5.43
2022-11-01T09:58:34.075Z,4.20
2022-11-01T10:01:11.124Z,4.23
2022-11-01T10:03:56.883Z,3.60
2022-11-01T10:06:31.729Z,6.90
2022-11-01T10:09:09.786Z,10.60
2022-11-01T10:11:42.220Z,6.00
2022-11-01T10:14:17.840Z,5.90
2022-11-01T10:17:14.637Z,2.33
2022-11-01T10:19:49.935Z,3.77
2022-11-01T10:22:19.598Z,7.53
2022-11-01T10:24:51.439Z,8.30
2022-11-01T10:27:42.709Z,9.37
2022-11-01T10:30:17.422Z,7.07
2022-11-01T10:32:55.293Z,9.43
2022-11-01T10:35:44.719Z,7.30
2022-11-01T10:38:26.620Z,6.90
2022-11-01T10:41:03.862Z,8.10
2022-11-01T10:43:35.567Z,8.47
2022-11-01T10:46:07.287Z,6.20
2022-11-01T10:48:41.414Z,8.03
2022-11-01T10:51:09.789Z,6.77
2022-11-01T10:54:04.805Z,7.40
2022-11-01T10:56:36.423Z,6.27
2022-11-01T10:59:16.971Z,6.23
2022-11-01T11:01:44.934Z,5.27
2022-11-01T11:04:15.926Z,9.03
2022-11-01T11:06:43.806Z,8.37
2022-11-01T11:09:27.527Z,6.97
2022-11-01T11:11:59.995Z,7.87
2022-11-01T11:14:28.756Z,6.00
2022-11-01T11:16:57.081Z,7.87
2022-11-01T11:19:29.720Z,10.33
2022-11-01T11:21:58.210Z,13.43
2022-11-01T11:24:30.618Z,7.80
2022-11-01T11:26:58.013Z,11.27
2022-11-01T11:29:39.112Z,9.57
2022-11-01T11:32:14.732Z,8.10
2022-11-01T11:34:42.200Z,9.83
2022-11-01T11:37:19.031Z,11.93
2022-11-01T11:40:00.195Z,8.30
2022-11-01T11:42:27.293Z,8.40
2022-11-01T11:44:58.556Z,8.03
2022-11-01T11:47:28.172Z,11.33
2022-11-01T11:50:00.927Z,12.23
2022-11-01T11:52:41.180Z,8.87
2022-11-01T11:55:35.806Z,10.43
2022-11-01T11:58:14.962Z,8.97
2022-11-01T12:00:46.973Z,9.83
2022-11-01T12:03:17.412Z,11.40
2022-11-01T12:06:11.105Z,6.17
2022-11-01T12:08:48.487Z,10.40
2022-11-01T12:11:15.891Z,10.73
2022-11-01T12:14:07.632Z,11.00
2022-11-01T12:16:41.572Z,9.57
2022-11-01T12:19:23.657Z,10.57
2022-11-01T12:21:51.448Z,10.77
2022-11-01T12:24:24.560Z,8.97
2022-11-01T12:26:54.300Z,13.90
2022-11-01T12:29:51.076Z,8.20
2022-11-01T12:32:28.415Z,9.43
2022-11-01T12:35:01.193Z,10.43
2022-11-01T12:37:52.984Z,11.23
2022-11-01T12:40:28.708Z,9.23
2022-11-01T12:43:17.868Z,10.00
2022-11-01T12:45:55.319Z,14.23
2022-11-01T12:48:54.502Z,12.70
2022-11-01T12:51:35.126Z,8.80
2022-11-01T12:54:10.139Z,10.27
2022-11-01T12:56:36.892Z,8.80
2022-11-01T12:59:05.792Z,13.77
2022-11-01T13:01:50.997Z,7.90
2022-11-01T13:04:48.983Z,7.90
2022-11-01T13:07:30.980Z,12.60
2022-11-01T13:10:09.583Z,8.20
2022-11-01T13:12:39.345Z,10.77
2022-11-01T13:15:34.091Z,8.30
2022-11-01T13:18:28.710Z,8.03
2022-11-01T13:21:34.321Z,10.00
2022-11-01T13:24:16.828Z,5.83
2022-11-01T13:26:58.512Z,9.57
2022-11-01T13:29:41.178Z,6.03
2022-11-01T13:32:13.965Z,10.77
2022-11-01T13:35:10.541Z,9.00
2022-11-01T13:37:45.276Z,14.27
2022-11-01T13:40:28.118Z,9.00
2022-11-01T13:43:06.452Z,10.07
2022-11-01T13:46:03.212Z,7.97
2022-11-01T13:48:44.829Z,10.27
2022-11-01T13:51:35.532Z,8.10
2022-11-01T13:54:21.996Z,5.37
2022-11-01T13:56:57.445Z,6.70
2022-11-01T13:59:38.266Z,11.43
2022-11-01T14:02:46.139Z,6.87
2022-11-01T14:05:13.583Z,6.90
2022-11-01T14:07:43.456Z,6.23
2022-11-01T14:10:19.946Z,8.17
2022-11-01T14:13:10.803Z,8.33
2022-11-01T14:16:00.527Z,7.73
2022-11-01T14:18:27.754Z,6.73
2022-11-01T14:20:56.013Z,7.80
2022-11-01T14:23:32.429Z,15.73
2022-11-01T14:26:17.996Z,11.30
2022-11-01T14:28:57.020Z,7.17
2022-11-01T14:31:27.403Z,8.93
2022-11-01T14:33:59.950Z,8.53
2022-11-01T14:36:31.071Z,13.07
2022-11-01T14:39:06.983Z,9.33
2022-11-01T14:41:38.347Z,8.03
2022-11-01T14:44:18.972Z,8.40
2022-11-01T14:46:53.922Z,13.90
2022-11-01T14:49:33.521Z,8.70
2022-11-01T14:52:32.168Z,6.07
2022-11-01T14:55:04.319Z,9.20
2022-11-01T14:57:33.912Z,12.57
2022-11-01T15:00:23.158Z,10.93
2022-11-01T15:02:51.054Z,8.30
2022-11-01T15:05:18.140Z,9.03
2022-11-01T15:07:50.427Z,6.80
2022-11-01T15:10:17.606Z,9.00
2022-11-01T15:13:01.690Z,8.97
2022-11-01T15:15:36.215Z,9.53
2022-11-01T15:18:07.818Z,10.50
2022-11-01T15:20:41.269Z,5.97
2022-11-01T15:23:11.637Z,8.63
2022-11-01T15:25:44.115Z,5.33
2022-11-01T15:28:23.752Z,7.53
2022-11-01T15:30:57.016Z,6.03
2022-11-01T15:33:32.914Z,9.73
2022-11-01T15:36:36.913Z,10.13
2022-11-01T15:39:17.901Z,8.80
2022-11-01T15:41:44.909Z,10.20
2022-11-01T15:44:25.279Z,5.60
2022-11-01T15:46:56.120Z,6.30
2022-11-01T15:49:37.127Z,7.17
2022-11-01T15:52:17.914Z,6.17
2022-11-01T15:55:15.740Z,7.63
2022-11-01T15:57:50.940Z,7.37
2022-11-01T16:00:27.590Z,8.60
2022-11-01T16:03:05.327Z,5.63
2022-11-01T16:05:56.711Z,6.87
2022-11-01T16:08:56.150Z,8.33
2022-11-01T16:11:25.638Z,7.77
2022-11-01T16:14:07.164Z,7.37
2022-11-01T16:17:00.081Z,6.17
2022-11-01T16:19:34.098Z,9.50
2022-11-01T16:22:01.065Z,6.73
2022-11-01T16:24:28.299Z,7.47
2022-11-01T16:26:58.377Z,6.10
2022-11-01T16:29:51.433Z,6.73
2022-11-01T16:32:24.634Z,10.57
2022-11-01T16:34:51.832Z,8.53
2022-11-01T16:37:27.228Z,8.63
2022-11-01T16:39:54.403Z,5.47
2022-11-01T16:42:22.564Z,8.20
2022-11-01T16:44:54.094Z,5.40
2022-11-01T16:47:21.387Z,6.93
2022-11-01T16:49:50.800Z,5.80
2022-11-01T16:52:18.391Z,7.53
2022-11-01T16:54:48.993Z,8.27
2022-11-01T16:57:26.717Z,7.10
2022-11-01T16:59:54.735Z,4.80
2022-11-01T17:02:23.963Z,5.17
2022-11-01T17:05:20.973Z,7.03
2022-11-01T17:07:48.691Z,8.13
2022-11-01T17:10:21.192Z,8.67
2022-11-01T17:12:49.010Z,6.30
2022-11-01T17:15:15.906Z,9.87
2022-11-01T17:17:45.652Z,5.33
2022-11-01T17:20:16.643Z,4.47
2022-11-01T17:22:44.362Z,6.77
2022-11-01T17:25:16.475Z,4.20
2022-11-01T17:27:44.092Z,6.70
2022-11-01T17:30:11.449Z,7.87
2022-11-01T17:32:38.541Z,6.20
2022-11-01T17:35:06.679Z,8.53
2022-11-01T17:37:36.640Z,5.67
2022-11-01T17:40:09.248Z,5.07
2022-11-01T17:42:36.178Z,5.37
2022-11-01T17:45:02.914Z,9.17
2022-11-01T17:47:29.862Z,4.00
2022-11-01T17:49:56.732Z,5.10
2022-11-01T17:52:23.510Z,5.73
2022-11-01T17:54:50.453Z,6.27
2022-11-01T17:57:17.204Z,7.13
2022-11-01T17:59:44.014Z,7.70
2022-11-01T18:02:10.945Z,5.67
2022-11-01T18:04:38.479Z,8.70
2022-11-01T18:07:06.481Z,3.73
2022-11-01T18:09:34.704Z,8.67
2022-11-01T18:12:13.326Z,9.13
2022-11-01T18:15:22.283Z,6.93
2022-11-01T18:18:19.616Z,6.03
2022-11-01T18:21:11.556Z,7.33
2022-11-01T18:23:42.676Z,5.13
2022-11-01T18:26:19.298Z,5.43
2022-11-01T18:28:46.251Z,7.30
2022-11-01T18:31:53.966Z,5.00
2022-11-01T18:34:44.721Z,5.57
2022-11-01T18:37:34.728Z,6.30
2022-11-01T18:40:11.476Z,7.73
2022-11-01T18:42:38.677Z,7.30
2022-11-01T18:45:45.742Z,4.57
2022-11-01T18:48:26.865Z,6.80
2022-11-01T18:51:05.812Z,7.07
2022-11-01T18:53:37.013Z,7.93
2022-11-01T18:56:25.701Z,7.13
2022-11-01T18:58:53.960Z,6.03
2022-11-01T19:01:31.995Z,6.47
2022-11-01T19:04:11.244Z,4.47
2022-11-01T19:06:38.076Z,5.53
2022-11-01T19:09:24.175Z,4.97
2022-11-01T19:12:10.815Z,5.53
2022-11-01T19:14:40.154Z,6.77
2022-11-01T19:17:19.932Z,5.33
2022-11-01T19:19:47.570Z,6.20
2022-11-01T19:22:26.399Z,4.10
2022-11-01T19:24:53.608Z,7.17
2022-11-01T19:27:22.541Z,4.07
2022-11-01T19:29:55.373Z,4.73
2022-11-01T19:32:26.005Z,8.60
2022-11-01T19:34:54.509Z,7.77
2022-11-01T19:37:34.641Z,6.17
2022-11-01T19:40:12.517Z,4.57
2022-11-01T19:42:39.484Z,5.37
2022-11-01T19:45:15.109Z,6.17
2022-11-01T19:47:47.048Z,5.53
2022-11-01T19:50:23.430Z,5.03
2022-11-01T19:52:54.324Z,4.13
2022-11-01T19:55:36.751Z,5.40
2022-11-01T19:58:22.660Z,6.20
2022-11-01T20:00:52.201Z,6.10
2022-11-01T20:03:29.215Z,6.37
2022-11-01T20:05:56.859Z,4.23
2022-11-01T20:08:36.359Z,8.57
2022-11-01T20:11:03.501Z,4.30
2022-11-01T20:13:31.390Z,7.30
2022-11-01T20:15:58.215Z,6.13
2022-11-01T20:18:25.461Z,8.13
2022-11-01T20:20:54.027Z,5.13
2022-11-01T20:23:26.325Z,7.37
2022-11-01T20:25:56.709Z,8.13
2022-11-01T20:28:23.646Z,4.87
2022-11-01T20:30:53.222Z,5.93
2022-11-01T20:33:20.122Z,10.93
2022-11-01T20:35:47.807Z,6.47
2022-11-01T20:38:14.791Z,6.20
2022-11-01T20:40:41.800Z,5.73
2022-11-01T20:43:08.940Z,5.80
2022-11-01T20:45:36.193Z,8.63
2022-11-01T20:48:04.076Z,10.73
2022-11-01T20:50:31.003Z,9.10
2022-11-01T20:52:58.007Z,12.33
2022-11-01T20:55:25.178Z,6.47
2022-11-01T20:57:52.479Z,8.53
2022-11-01T21:00:19.443Z,7.30
2022-11-01T21:02:48.080Z,7.87
2022-11-01T21:05:18.072Z,7.43
2022-11-01T21:07:47.903Z,5.47
2022-11-01T21:10:44.731Z,5.67
2022-11-01T21:13:44.174Z,6.17
2022-11-01T21:16:24.303Z,7.20
2022-11-01T21:18:54.661Z,6.77
2022-11-01T21:21:36.141Z,8.70
2022-11-01T21:24:28.946Z,10.93
2022-11-01T21:30:03.480Z,10.93
2022-11-01T21:32:41.007Z,7.17
2022-11-01T21:35:20.545Z,13.53
2022-11-01T21:37:54.431Z,6.90
2022-11-01T21:40:29.293Z,11.83
2022-11-01T21:42:57.741Z,8.67
2022-11-01T21:45:32.910Z,12.83
2022-11-01T21:48:17.335Z,7.87
2022-11-01T21:50:44.122Z,10.53
2022-11-01T21:53:10.940Z,11.97
2022-11-01T21:55:37.789Z,8.27
2022-11-01T21:58:04.611Z,5.23
2022-11-01T22:00:31.512Z,7.10
2022-11-01T22:02:58.449Z,9.93
2022-11-01T22:05:25.183Z,7.37
2022-11-01T22:07:52.218Z,9.77
2022-11-01T22:10:19.210Z,12.80
2022-11-01T22:12:45.966Z,5.93
2022-11-01T22:15:14.169Z,9.90
2022-11-01T22:17:40.981Z,7.70
2022-11-01T22:20:08.211Z,8.03
2022-11-01T22:22:35.096Z,7.43
2022-11-01T22:25:01.923Z,7.80
2022-11-01T22:27:28.861Z,10.20
2022-11-01T22:29:55.622Z,14.53
2022-11-01T22:32:22.375Z,10.03
2022-11-01T22:34:49.162Z,8.43
2022-11-01T22:37:16.123Z,7.27
2022-11-01T22:39:43.339Z,9.13
2022-11-01T22:42:13.011Z,8.67
2022-11-01T22:44:42.287Z,9.47
2022-11-01T22:47:21.866Z,6.10
2022-11-01T22:49:54.397Z,13.30
2022-11-01T22:52:29.261Z,7.30
2022-11-01T22:55:11.403Z,8.83
2022-11-01T22:57:47.860Z,7.20
2022-11-01T23:00:27.203Z,7.67
2022-11-01T23:02:59.798Z,9.03
2022-11-01T23:05:26.858Z,10.07
2022-11-01T23:08:01.021Z,11.33
2022-11-01T23:10:30.790Z,9.33
2022-11-01T23:13:31.189Z,8.83
2022-11-01T23:16:01.233Z,7.13
2022-11-01T23:18:33.482Z,9.83
2022-11-01T23:21:02.163Z,9.80
2022-11-01T23:23:29.373Z,9.00
2022-11-01T23:25:59.428Z,7.63
2022-11-01T23:28:27.865Z,7.20
2022-11-01T23:30:56.374Z,7.60
2022-11-01T23:33:28.067Z,9.77
2022-11-01T23:35:58.053Z,5.63
2022-11-01T23:38:39.906Z,5.77
2022-11-01T23:41:21.588Z,11.87
2022-11-01T23:43:49.212Z,9.20
2022-11-01T23:46:16.074Z,14.00
2022-11-01T23:48:44.551Z,5.90
2022-11-01T23:51:21.549Z,7.60
2022-11-01T23:53:52.792Z,6.40
2022-11-01T23:56:20.958Z,12.27
2022-11-01T23:58:59.237Z,9.83
